Time;durP1;ratioP1;P1;durP2;ratioP2;P2;SDS_P1;SDS_P2;PMS_P1;PMS_P2;Temp;Humidity;BMP_temperature;BMP_pressure;BME280_temperature;BME280_humidity;BME280_pressure;Samples;Min_cycle;Max_cycle;Signal;HPM_P1;HPM_P2
2023/02/18 00:00:58;;;;;;;213.80;195.52;;;;;;;4.88;78.59;101739.09;4994252;28;20036;-72
2023/02/18 00:03:26;;;;;;;202.35;182.85;;;;;;;4.76;78.83;101746.06;5004611;28;20045;-71
2023/02/18 00:05:53;;;;;;;201.02;181.85;;;;;;;4.72;79.53;101747.47;5002155;28;20053;-72
2023/02/18 00:08:21;;;;;;;201.65;182.68;;;;;;;4.80;78.83;101753.38;5002565;28;20399;-73
2023/02/18 00:10:48;;;;;;;202.93;183.57;;;;;;;4.85;78.96;101755.41;4990972;28;20458;-73
2023/02/18 00:13:14;;;;;;;213.05;194.80;;;;;;;4.72;79.82;101755.44;5001980;28;20038;-72
2023/02/18 00:15:40;;;;;;;212.52;194.95;;;;;;;4.83;78.94;101752.97;4999210;28;20030;-72
2023/02/18 00:18:09;;;;;;;214.23;196.13;;;;;;;4.73;79.41;101736.66;4997981;28;20038;-73
2023/02/18 00:20:38;;;;;;;198.40;179.68;;;;;;;4.80;79.10;101747.25;5004439;28;20037;-73
2023/02/18 00:23:03;;;;;;;198.50;179.75;;;;;;;4.79;78.94;101751.75;5009368;28;20057;-73
2023/02/18 00:25:32;;;;;;;195.38;177.13;;;;;;;4.89;78.20;101759.31;4999316;28;20394;-73
2023/02/18 00:27:59;;;;;;;198.77;180.82;;;;;;;4.85;78.98;101760.72;4998281;28;20034;-72
2023/02/18 00:30:24;;;;;;;195.02;177.30;;;;;;;4.70;79.05;101757.50;4982315;28;20037;-73
2023/02/18 00:32:50;;;;;;;209.38;191.70;;;;;;;4.72;79.03;101758.09;5010559;28;20045;-74
2023/02/18 00:35:15;;;;;;;210.45;192.10;;;;;;;4.72;78.88;101760.75;4996999;28;20060;-74
2023/02/18 00:37:42;;;;;;;210.93;193.23;;;;;;;4.69;78.80;101758.53;5003763;28;20053;-72
2023/02/18 00:40:08;;;;;;;198.90;180.82;;;;;;;4.64;79.15;101765.25;5004354;28;20030;-72
2023/02/18 00:42:34;;;;;;;199.60;180.63;;;;;;;4.61;79.38;101765.66;5008737;28;20033;-73
2023/02/18 00:44:59;;;;;;;197.75;179.27;;;;;;;4.43;79.93;101770.75;5000506;28;20352;-72
2023/02/18 00:47:25;;;;;;;215.27;196.65;;;;;;;4.41;79.92;101770.16;4996548;28;20048;-71
2023/02/18 00:49:51;;;;;;;200.27;181.48;;;;;;;4.44;79.54;101763.63;4973904;28;20137;-72
2023/02/18 00:52:16;;;;;;;201.18;182.43;;;;;;;4.24;80.42;101763.59;5000684;28;20042;-72
2023/02/18 00:54:42;;;;;;;211.27;193.55;;;;;;;4.27;80.37;101763.22;4964646;28;20065;-72
2023/02/18 00:57:07;;;;;;;200.48;181.75;;;;;;;4.21;80.45;101767.47;5003137;28;20057;-72
2023/02/18 00:59:33;;;;;;;195.98;178.15;;;;;;;4.17;80.21;101762.78;5005847;28;20046;-73
2023/02/18 01:02:00;;;;;;;210.70;192.85;;;;;;;4.26;80.06;101766.84;4993426;28;20051;-72
2023/02/18 01:04:25;;;;;;;197.23;178.82;;;;;;;4.42;79.42;101770.97;4988579;28;20045;-73
2023/02/18 01:06:53;;;;;;;213.38;194.95;;;;;;;4.54;78.96;101779.94;5000315;28;20488;-74
2023/02/18 01:09:19;;;;;;;198.65;180.60;;;;;;;4.61;78.88;101770.97;5006546;28;20112;-73
2023/02/18 01:11:44;;;;;;;209.50;191.93;;;;;;;4.62;78.59;101774.44;4982871;28;20050;-72
2023/02/18 01:14:10;;;;;;;198.07;179.57;;;;;;;4.80;78.10;101771.13;4989881;28;20045;-72
2023/02/18 01:16:36;;;;;;;195.32;177.13;;;;;;;4.79;77.80;101775.63;4997850;28;20045;-73
2023/02/18 01:19:01;;;;;;;213.40;195.68;;;;;;;4.59;78.41;101767.69;4997343;28;20113;-73
2023/02/18 01:21:27;;;;;;;197.93;179.20;;;;;;;4.62;78.76;101769.94;5001184;28;20373;-72
2023/02/18 01:23:53;;;;;;;197.35;178.57;;;;;;;4.50;78.96;101768.09;5004954;28;20041;-71
2023/02/18 01:26:18;;;;;;;200.65;182.00;;;;;;;4.40;79.31;101768.50;4988080;28;20052;-72
2023/02/18 01:28:44;;;;;;;201.10;181.90;;;;;;;4.29;79.95;101772.59;4984178;28;20034;-73
2023/02/18 01:31:12;;;;;;;201.65;182.57;;;;;;;4.32;79.87;101772.16;4986321;28;20025;-72
2023/02/18 01:33:38;;;;;;;214.60;196.13;;;;;;;4.51;78.56;101781.16;4990171;28;20049;-73
2023/02/18 01:36:05;;;;;;;198.55;180.18;;;;;;;4.43;79.40;101773.41;5002902;28;20037;-73
2023/02/18 01:38:30;;;;;;;214.98;196.70;;;;;;;4.41;79.34;101778.13;4987284;28;20484;-72
2023/02/18 01:40:56;;;;;;;215.80;197.70;;;;;;;4.38;79.93;101781.16;5002525;28;20038;-72
2023/02/18 01:43:22;;;;;;;200.07;181.05;;;;;;;4.41;79.99;101775.47;4969926;28;20058;-72
2023/02/18 01:45:56;;;;;;;213.68;195.50;;;;;;;4.46;79.64;101774.81;5003621;28;20056;-73
2023/02/18 01:48:53;;;;;;;218.15;199.57;;;;;;;4.32;80.01;101771.34;4998923;28;20062;-73
2023/02/18 01:51:24;;;;;;;217.20;198.88;;;;;;;4.36;79.61;101767.28;5002461;28;20057;-72
2023/02/18 01:53:55;;;;;;;202.65;183.48;;;;;;;4.28;79.92;101760.34;4988335;28;20034;-73
2023/02/18 01:56:32;;;;;;;200.20;182.55;;;;;;;4.20;80.02;101754.41;4973300;28;20057;-73
2023/02/18 01:59:02;;;;;;;201.75;182.80;;;;;;;4.10;80.45;101758.28;4992044;28;20091;-72
2023/02/18 02:01:30;;;;;;;214.68;196.20;;;;;;;4.17;80.48;101746.88;4999502;28;20233;-72
2023/02/18 02:03:55;;;;;;;200.18;181.80;;;;;;;4.19;80.18;101750.94;4978959;28;20042;-73
2023/02/18 02:06:23;;;;;;;218.60;200.52;;;;;;;4.30;79.63;101747.69;4981697;28;20053;-73
2023/02/18 02:08:53;;;;;;;217.02;199.20;;;;;;;4.39;79.30;101758.91;4986357;28;20044;-73
2023/02/18 02:11:21;;;;;;;201.55;183.20;;;;;;;4.26;80.14;101751.75;4983502;28;20037;-73
2023/02/18 02:13:53;;;;;;;201.82;182.88;;;;;;;4.29;79.97;101751.38;4980256;28;20040;-73
2023/02/18 02:16:55;;;;;;;219.23;200.70;;;;;;;4.29;80.06;101754.03;4982497;28;20526;-73
2023/02/18 02:19:41;;;;;;;221.30;202.52;;;;;;;4.30;79.45;101757.50;4982338;28;20061;-74
2023/02/18 02:22:44;;;;;;;215.73;198.02;;;;;;;4.30;79.82;101742.38;4962441;28;20053;-73
2023/02/18 02:25:38;;;;;;;215.95;198.30;;;;;;;4.34;79.14;101748.94;4996746;28;20408;-74
2023/02/18 02:28:29;;;;;;;216.65;198.30;;;;;;;4.44;79.17;101753.81;5000159;28;20046;-72
2023/02/18 02:31:07;;;;;;;221.00;201.77;;;;;;;4.50;78.75;101750.34;4988306;28;21071;-73
2023/02/18 02:33:51;;;;;;;200.50;181.85;;;;;;;4.49;78.59;101746.06;4984910;28;20038;-72
2023/02/18 02:36:25;;;;;;;221.95;203.60;;;;;;;4.47;79.13;101748.13;4980448;28;20081;-72
2023/02/18 02:38:57;;;;;;;217.05;198.98;;;;;;;4.42;79.46;101739.16;5000486;28;20120;-73
2023/02/18 02:41:38;;;;;;;213.73;196.20;;;;;;;4.44;78.99;101745.88;4986100;28;20057;-72
2023/02/18 02:44:14;;;;;;;214.00;196.10;;;;;;;4.37;79.99;101737.09;4974917;28;20113;-72
2023/02/18 02:46:43;;;;;;;200.55;182.10;;;;;;;4.36;79.35;101735.47;5009049;28;20026;-73
2023/02/18 02:49:33;;;;;;;203.10;184.43;;;;;;;4.38;79.63;101728.13;4967385;28;20042;-72
2023/02/18 02:52:10;;;;;;;196.75;178.88;;;;;;;4.44;79.55;101722.00;4992156;28;20079;-72
2023/02/18 02:54:36;;;;;;;201.98;182.57;;;;;;;4.45;79.29;101713.00;4988797;28;20129;-72
2023/02/18 02:57:27;;;;;;;214.43;196.18;;;;;;;4.53;78.61;101726.06;4986266;28;20046;-72
2023/02/18 03:00:11;;;;;;;217.23;199.23;;;;;;;4.55;79.19;101726.69;4992216;28;20033;-72
2023/02/18 03:02:58;;;;;;;220.00;202.15;;;;;;;4.66;78.67;101726.03;5000672;28;20034;-72
2023/02/18 03:05:32;;;;;;;218.73;200.45;;;;;;;4.73;77.86;101731.34;4972269;28;20117;-72
2023/02/18 03:08:21;;;;;;;213.10;195.75;;;;;;;4.80;77.79;101720.72;4993177;28;20034;-71
2023/02/18 03:11:02;;;;;;;214.85;197.07;;;;;;;4.81;78.10;101719.69;4983841;28;20030;-72
2023/02/18 03:13:50;;;;;;;212.00;194.60;;;;;;;4.86;78.29;101725.19;4999220;28;20079;-72
2023/02/18 03:16:30;;;;;;;217.13;198.98;;;;;;;4.87;78.41;101718.88;4960101;28;20123;-72
2023/02/18 03:19:17;;;;;;;214.20;196.50;;;;;;;4.86;78.13;101720.69;4989332;28;20030;-73
2023/02/18 03:21:58;;;;;;;217.95;199.88;;;;;;;4.90;78.30;101723.78;4970860;28;20100;-72
2023/02/18 03:24:31;;;;;;;197.02;179.23;;;;;;;4.90;77.53;101706.00;4985200;28;20046;-74
2023/02/18 03:27:19;;;;;;;198.15;179.80;;;;;;;4.95;77.58;101717.84;4989526;28;20471;-73
2023/02/18 03:29:50;;;;;;;213.10;195.80;;;;;;;5.14;76.86;101712.44;4989100;28;20030;-73
2023/02/18 03:32:20;;;;;;;200.30;181.32;;;;;;;5.03;76.83;101710.47;4976347;28;20053;-72
2023/02/18 03:34:50;;;;;;;213.60;195.98;;;;;;;5.12;76.82;101719.00;4988457;28;20129;-73
2023/02/18 03:37:16;;;;;;;214.85;197.57;;;;;;;5.01;76.98;101720.47;4982147;28;20120;-73
2023/02/18 03:39:47;;;;;;;211.60;194.10;;;;;;;5.05;77.68;101719.03;5006669;28;20057;-73
2023/02/18 03:42:15;;;;;;;214.68;196.90;;;;;;;4.99;78.02;101719.84;5020238;28;20042;-73
2023/02/18 03:44:41;;;;;;;194.93;177.40;;;;;;;4.95;77.85;101715.19;4997254;28;20037;-74
2023/02/18 03:47:07;;;;;;;211.77;194.45;;;;;;;5.06;76.96;101720.66;4993580;28;20037;-71
2023/02/18 03:49:32;;;;;;;211.32;194.18;;;;;;;5.01;77.93;101717.00;4989091;28;20130;-72
2023/02/18 03:51:58;;;;;;;212.45;194.98;;;;;;;4.97;78.13;101727.22;5007648;28;20306;-73
2023/02/18 03:54:24;;;;;;;211.30;193.77;;;;;;;4.92;77.88;101719.06;5007592;28;20038;-74
2023/02/18 03:56:50;;;;;;;207.38;190.82;;;;;;;4.97;78.22;101716.59;4984923;28;20041;-72
2023/02/18 03:59:15;;;;;;;198.98;181.02;;;;;;;5.01;77.79;101717.81;4982491;28;20046;-72
2023/02/18 04:01:41;;;;;;;195.25;178.00;;;;;;;4.94;78.18;101711.69;4999400;28;20059;-72
2023/02/18 04:04:07;;;;;;;194.60;177.07;;;;;;;5.01;77.93;101711.69;4992715;28;20044;-74
2023/02/18 04:06:32;;;;;;;212.52;195.30;;;;;;;4.91;77.99;101709.47;4997023;28;20052;-72
2023/02/18 04:08:59;;;;;;;212.32;195.38;;;;;;;4.97;77.95;101715.78;4993960;28;20068;-74
2023/02/18 04:11:25;;;;;;;211.70;195.15;;;;;;;4.96;78.25;101716.81;4995428;28;20033;-73
2023/02/18 04:13:50;;;;;;;200.05;182.32;;;;;;;4.95;79.16;101721.31;4987643;28;20761;-72
2023/02/18 04:16:16;;;;;;;216.82;199.65;;;;;;;4.88;78.63;101716.03;4999413;28;20060;-73
2023/02/18 04:18:42;;;;;;;199.18;181.48;;;;;;;4.87;78.95;101711.72;4985010;28;20516;-73
2023/02/18 04:21:07;;;;;;;215.75;198.57;;;;;;;4.88;78.76;101701.94;4982345;28;20091;-72
2023/02/18 04:23:33;;;;;;;216.98;199.05;;;;;;;4.84;79.15;101711.31;5007066;28;20072;-73
2023/02/18 04:25:59;;;;;;;212.07;195.32;;;;;;;4.81;79.63;101701.13;4996544;28;20045;-73
2023/02/18 04:28:24;;;;;;;216.65;199.40;;;;;;;4.81;79.63;101693.16;4995218;28;20046;-72
2023/02/18 04:30:50;;;;;;;213.57;195.95;;;;;;;4.65;80.78;101697.88;5007229;28;20113;-72
2023/02/18 04:33:16;;;;;;;214.32;197.25;;;;;;;4.61;80.70;101688.72;4998092;28;20042;-73
2023/02/18 04:35:41;;;;;;;199.02;180.93;;;;;;;4.58;81.09;101683.00;5003456;28;20806;-74
2023/02/18 04:38:09;;;;;;;216.85;199.65;;;;;;;4.61;80.39;101685.25;4990370;28;20049;-73
2023/02/18 04:40:35;;;;;;;198.07;180.57;;;;;;;4.52;81.31;101675.88;5013672;28;20056;-72
2023/02/18 04:43:01;;;;;;;216.52;199.52;;;;;;;4.40;81.90;101675.66;5001971;28;20041;-73
2023/02/18 04:45:27;;;;;;;199.43;182.15;;;;;;;4.42;81.64;101656.91;5004975;28;20829;-73
2023/02/18 04:47:53;;;;;;;199.40;181.82;;;;;;;4.46;81.27;101672.19;4985832;28;20538;-73
2023/02/18 04:50:20;;;;;;;216.40;199.07;;;;;;;4.41;81.67;101671.22;5009617;28;20026;-74
2023/02/18 04:52:46;;;;;;;200.13;182.48;;;;;;;4.42;81.14;101662.22;4985952;28;20129;-74
2023/02/18 04:55:12;;;;;;;199.18;181.82;;;;;;;4.45;81.10;101664.44;5008646;28;20136;-73
2023/02/18 04:57:37;;;;;;;216.38;198.95;;;;;;;4.49;81.19;101658.53;4992167;28;20044;-73
2023/02/18 05:00:06;;;;;;;216.07;198.63;;;;;;;4.57;80.61;101655.66;4983892;28;20415;-73
2023/02/18 05:02:32;;;;;;;218.13;200.52;;;;;;;4.69;79.99;101660.34;4986316;28;20053;-73
2023/02/18 05:04:58;;;;;;;196.35;179.23;;;;;;;4.71;80.44;101663.59;4999249;28;20419;-73
2023/02/18 05:07:24;;;;;;;213.18;196.07;;;;;;;4.79;79.88;101671.31;4982380;28;20057;-72
2023/02/18 05:09:49;;;;;;;197.20;179.70;;;;;;;4.79;79.83;101671.31;5000377;28;20038;-73
2023/02/18 05:12:15;;;;;;;197.95;180.88;;;;;;;4.71;80.92;101668.91;4984336;28;20037;-72
2023/02/18 05:14:41;;;;;;;209.65;193.45;;;;;;;4.64;81.42;101664.41;4987266;28;20069;-73
2023/02/18 05:17:07;;;;;;;214.50;197.80;;;;;;;4.61;82.04;101664.84;5006296;28;20515;-72
2023/02/18 05:19:32;;;;;;;214.55;197.32;;;;;;;4.58;81.94;101657.28;4982564;28;20111;-74
2023/02/18 05:21:58;;;;;;;212.02;195.43;;;;;;;4.59;81.98;101650.13;5003561;28;20037;-74
2023/02/18 05:24:24;;;;;;;198.73;181.13;;;;;;;4.59;81.98;101647.50;5006060;28;20395;-74
2023/02/18 05:26:49;;;;;;;211.80;194.75;;;;;;;4.59;82.13;101653.59;5002085;28;20128;-74
2023/02/18 05:29:15;;;;;;;216.82;199.50;;;;;;;4.62;82.00;101641.78;5006355;28;20552;-74
2023/02/18 05:31:41;;;;;;;213.63;196.85;;;;;;;4.60;82.63;101644.63;4988044;28;20482;-74
2023/02/18 05:34:06;;;;;;;198.93;181.15;;;;;;;4.56;82.97;101646.06;4989463;28;20092;-74
2023/02/18 05:36:32;;;;;;;213.57;196.23;;;;;;;4.52;83.72;101633.41;5002976;28;20045;-73
2023/02/18 05:38:57;;;;;;;211.27;194.40;;;;;;;4.49;83.96;101645.28;4997721;28;20499;-74
2023/02/18 05:41:23;;;;;;;197.40;179.80;;;;;;;4.56;84.00;101640.78;5006168;28;20087;-74
2023/02/18 05:46:34;;;;;;;198.73;180.50;;;;;;;4.47;84.24;101627.91;5002998;28;20037;-73
2023/02/18 05:48:59;;;;;;;196.07;178.32;;;;;;;4.46;84.35;101618.34;4997916;28;20041;-73
2023/02/18 05:51:25;;;;;;;212.80;195.80;;;;;;;4.45;84.52;101616.72;5003898;28;20137;-72
2023/02/18 05:53:51;;;;;;;212.55;195.48;;;;;;;4.43;84.44;101614.28;4981762;28;20496;-72
2023/02/18 05:56:17;;;;;;;213.73;196.90;;;;;;;4.44;85.41;101612.44;5002027;28;20057;-75
2023/02/18 05:58:43;;;;;;;199.60;181.95;;;;;;;4.33;85.75;101619.16;4983910;28;20069;-75
2023/02/18 06:01:09;;;;;;;195.55;177.93;;;;;;;4.30;86.36;101617.75;5002155;28;20034;-73
2023/02/18 06:03:34;;;;;;;193.48;176.50;;;;;;;4.30;86.17;101619.59;5006732;28;20380;-72
2023/02/18 06:06:00;;;;;;;194.68;177.43;;;;;;;4.35;85.79;101622.44;5004644;28;20412;-73
2023/02/18 06:08:27;;;;;;;211.38;194.75;;;;;;;4.31;86.39;101611.44;4999162;28;20181;-74
2023/02/18 06:10:53;;;;;;;193.35;176.55;;;;;;;4.33;86.14;101605.91;5004433;28;20080;-72
2023/02/18 06:13:19;;;;;;;212.00;195.15;;;;;;;4.25;86.88;101603.47;4996060;28;20042;-72
2023/02/18 06:15:45;;;;;;;197.10;179.95;;;;;;;4.18;87.22;101606.16;4977886;28;20045;-74
2023/02/18 06:18:10;;;;;;;212.77;195.70;;;;;;;4.25;87.31;101614.09;5002162;28;20072;-75
2023/02/18 06:20:38;;;;;;;196.70;179.75;;;;;;;4.17;87.71;101598.41;5006537;28;20080;-72
2023/02/18 06:23:04;;;;;;;210.55;194.02;;;;;;;4.13;87.16;101592.69;5002553;28;20045;-73
2023/02/18 06:25:29;;;;;;;192.82;175.55;;;;;;;4.15;87.16;101595.16;5003083;28;20038;-73
2023/02/18 06:27:55;;;;;;;191.50;174.70;;;;;;;4.10;87.69;101578.00;4986379;28;20072;-73
2023/02/18 06:30:21;;;;;;;194.57;177.02;;;;;;;4.13;87.29;101565.34;4986255;28;20124;-74
2023/02/18 06:32:47;;;;;;;191.48;175.25;;;;;;;4.13;87.34;101565.34;4992388;28;20048;-73
2023/02/18 06:35:12;;;;;;;193.10;175.85;;;;;;;4.10;87.25;101556.81;4980018;28;20040;-74
2023/02/18 06:37:38;;;;;;;191.38;174.65;;;;;;;4.10;87.04;101556.00;5001886;28;20034;-73
2023/02/18 06:40:05;;;;;;;196.02;178.93;;;;;;;4.05;87.47;101553.13;5000485;28;20132;-74
2023/02/18 06:42:31;;;;;;;196.45;178.77;;;;;;;4.00;87.76;101563.56;4971687;28;20125;-73
2023/02/18 06:44:56;;;;;;;194.90;177.07;;;;;;;4.04;88.07;101560.28;5016124;28;20243;-74
2023/02/18 06:47:22;;;;;;;209.55;192.45;;;;;;;4.07;87.83;101530.72;5003330;28;20041;-74
2023/02/18 06:49:47;;;;;;;210.40;193.77;;;;;;;4.06;87.74;101525.59;5009751;28;20187;-74
2023/02/18 06:52:13;;;;;;;210.18;193.50;;;;;;;4.05;87.73;101527.44;4983766;28;20132;-74
2023/02/18 06:54:39;;;;;;;207.57;191.27;;;;;;;4.07;87.91;101514.81;4998826;28;20030;-73
2023/02/18 06:57:04;;;;;;;195.05;178.05;;;;;;;4.10;88.12;101511.75;5015587;28;20042;-73
2023/02/18 06:59:32;;;;;;;206.98;190.23;;;;;;;4.17;88.17;101517.03;4991554;28;20037;-73
2023/02/18 07:01:57;;;;;;;192.70;175.90;;;;;;;4.24;88.21;101509.06;5000993;28;20042;-74
2023/02/18 07:04:23;;;;;;;190.65;174.20;;;;;;;4.29;88.68;101504.75;4997268;28;20116;-73
2023/02/18 07:06:48;;;;;;;204.88;188.63;;;;;;;4.26;88.02;101493.75;4980954;28;20045;-74
2023/02/18 07:09:33;;;;;;;194.68;177.40;;;;;;;4.25;88.07;101484.16;4997810;28;20063;-76
2023/02/18 07:11:58;;;;;;;202.02;186.10;;;;;;;4.37;87.79;101477.19;5000132;28;20068;-76
2023/02/18 07:14:25;;;;;;;210.27;193.40;;;;;;;4.35;87.69;101473.94;5001133;28;20034;-74
2023/02/18 07:16:51;;;;;;;207.05;190.65;;;;;;;4.43;87.54;101471.03;4980002;28;20026;-74
2023/02/18 07:19:16;;;;;;;191.75;174.85;;;;;;;4.41;87.07;101461.69;5002278;28;20120;-74
2023/02/18 07:21:42;;;;;;;208.85;192.68;;;;;;;4.40;87.57;101474.09;4983838;28;20080;-72
2023/02/18 07:24:08;;;;;;;205.18;189.27;;;;;;;4.38;87.19;101470.84;4985480;28;20141;-74
2023/02/18 07:26:33;;;;;;;191.25;174.50;;;;;;;4.37;87.56;101471.88;4998230;28;20045;-72
2023/02/18 07:28:59;;;;;;;205.05;188.63;;;;;;;4.35;88.26;101458.03;4981363;28;20483;-73
2023/02/18 07:31:24;;;;;;;207.00;189.40;;;;;;;4.38;88.30;101437.19;5002219;28;20041;-73
2023/02/18 07:33:50;;;;;;;206.07;190.35;;;;;;;4.39;88.72;101438.00;4983643;28;20410;-74
2023/02/18 07:36:15;;;;;;;187.05;170.80;;;;;;;4.40;88.72;101429.03;5009230;28;20057;-75
2023/02/18 07:38:41;;;;;;;197.70;181.90;;;;;;;4.49;89.29;101411.84;4998529;28;20053;-74
2023/02/18 07:41:16;;;;;;;185.57;169.63;;;;;;;4.51;88.53;101407.13;5003597;28;20128;-75
2023/02/18 07:43:41;;;;;;;201.82;185.52;;;;;;;4.53;88.60;101394.47;4982101;28;20042;-74
2023/02/18 07:46:07;;;;;;;187.48;171.23;;;;;;;4.61;88.37;101398.72;4980259;28;20069;-73
2023/02/18 07:48:32;;;;;;;190.85;174.15;;;;;;;4.72;88.02;101402.53;4974832;28;20044;-73
2023/02/18 07:50:58;;;;;;;196.00;180.82;;;;;;;4.73;88.23;101401.50;4999018;28;20033;-74
2023/02/18 07:53:24;;;;;;;190.32;173.85;;;;;;;4.64;88.11;101407.06;4995581;28;20025;-75
2023/02/18 07:55:50;;;;;;;184.88;168.88;;;;;;;4.63;88.31;101386.88;4995759;28;20034;-74
2023/02/18 07:58:21;;;;;;;187.93;171.85;;;;;;;4.68;88.27;101367.66;5016095;28;20037;-74
2023/02/18 08:00:48;;;;;;;193.30;177.93;;;;;;;4.70;87.73;101364.78;4997379;28;20029;-74
2023/02/18 08:03:16;;;;;;;182.35;166.73;;;;;;;4.71;88.12;101350.47;4977254;28;20739;-73
2023/02/18 08:05:41;;;;;;;181.15;165.18;;;;;;;4.79;87.88;101344.91;4999446;28;20053;-73
2023/02/18 08:08:11;;;;;;;180.73;165.43;;;;;;;4.82;87.16;101341.84;4980457;28;20471;-74
2023/02/18 08:10:37;;;;;;;191.57;176.85;;;;;;;4.81;87.17;101341.03;4986133;28;20119;-73
2023/02/18 08:13:03;;;;;;;181.27;165.15;;;;;;;4.83;87.11;101332.84;5003923;28;20113;-73
2023/02/18 08:15:28;;;;;;;193.30;178.40;;;;;;;4.90;86.52;101331.75;4984226;28;20048;-73
2023/02/18 08:17:54;;;;;;;187.07;172.35;;;;;;;4.86;87.11;101327.91;5005994;28;20049;-73
2023/02/18 08:20:19;;;;;;;195.13;180.27;;;;;;;4.84;86.55;101337.13;4966561;28;20061;-73
2023/02/18 08:22:45;;;;;;;184.45;168.43;;;;;;;4.85;86.82;101336.09;5001047;28;20065;-73
2023/02/18 08:25:11;;;;;;;179.88;164.73;;;;;;;4.84;87.07;101334.47;5003425;28;20037;-73
2023/02/18 08:27:36;;;;;;;195.73;180.40;;;;;;;4.80;86.79;101338.56;5001353;28;20044;-73
2023/02/18 08:30:03;;;;;;;183.23;167.35;;;;;;;4.81;87.60;101329.56;5010153;28;20092;-74
2023/02/18 08:32:29;;;;;;;202.02;185.93;;;;;;;4.88;87.53;101317.09;4990365;28;20040;-73
2023/02/18 08:34:55;;;;;;;185.05;168.90;;;;;;;4.83;87.33;101301.00;4993376;28;20158;-74
2023/02/18 08:37:21;;;;;;;185.50;169.75;;;;;;;4.80;87.66;101306.72;4990583;28;20563;-74
2023/02/18 08:39:47;;;;;;;181.23;165.27;;;;;;;4.83;87.97;101295.69;5013993;28;20422;-73
2023/02/18 08:42:12;;;;;;;182.38;166.90;;;;;;;4.93;87.85;101290.69;4989179;28;20543;-73
2023/02/18 08:44:38;;;;;;;183.70;167.32;;;;;;;4.83;87.98;101291.19;5006431;28;20042;-74
2023/02/18 08:47:04;;;;;;;191.57;174.57;;;;;;;4.90;87.73;101301.75;5002545;28;20137;-74
2023/02/18 08:49:29;;;;;;;183.35;167.50;;;;;;;4.90;87.74;101301.75;5002711;28;20110;-73
2023/02/18 08:51:55;;;;;;;195.90;180.55;;;;;;;4.84;88.24;101295.47;5006009;28;20033;-76
2023/02/18 08:54:21;;;;;;;185.13;169.48;;;;;;;4.82;88.12;101281.63;5004263;28;20593;-74
2023/02/18 08:56:47;;;;;;;183.57;168.00;;;;;;;4.84;88.43;101270.78;4989361;28;20419;-75
2023/02/18 08:59:13;;;;;;;192.30;177.32;;;;;;;4.80;88.47;101264.25;4985906;28;20117;-75
2023/02/18 09:01:38;;;;;;;190.07;175.43;;;;;;;4.84;88.43;101260.16;4998192;28;20038;-75
2023/02/18 09:04:04;;;;;;;179.90;164.70;;;;;;;4.84;88.29;101255.66;4991495;28;20045;-74
2023/02/18 09:06:30;;;;;;;144.32;129.85;;;;;;;4.87;88.71;101246.44;4988784;28;20044;-74
2023/02/18 09:08:55;;;;;;;191.05;176.30;;;;;;;4.88;88.75;101240.13;4989170;28;20038;-75
2023/02/18 09:11:21;;;;;;;184.73;169.00;;;;;;;4.96;88.49;101231.88;4997703;28;20042;-74
2023/02/18 09:13:47;;;;;;;192.10;177.30;;;;;;;4.91;88.11;101223.75;4988756;28;20492;-76
2023/02/18 09:16:18;;;;;;;185.02;169.43;;;;;;;4.92;88.54;101210.25;4985774;28;20061;-73
2023/02/18 09:18:45;;;;;;;182.45;166.85;;;;;;;4.89;88.95;101196.63;5006340;28;20043;-74
2023/02/18 09:21:14;;;;;;;195.27;179.93;;;;;;;4.90;89.07;101190.28;5008311;28;20037;-74
2023/02/18 09:23:41;;;;;;;186.63;170.40;;;;;;;4.93;88.95;101177.34;4991235;28;20069;-74
2023/02/18 09:26:09;;;;;;;197.00;181.10;;;;;;;4.97;88.82;101168.97;4979472;28;20092;-73
2023/02/18 09:28:35;;;;;;;191.57;176.45;;;;;;;4.96;88.88;101176.13;4984401;28;20081;-74
2023/02/18 09:31:11;;;;;;;183.52;168.00;;;;;;;5.00;88.70;101171.97;4993027;28;20041;-73
2023/02/18 09:33:39;;;;;;;184.50;169.13;;;;;;;5.01;89.18;101170.94;5001441;28;20124;-74
2023/02/18 09:36:06;;;;;;;181.98;167.18;;;;;;;4.98;89.09;101166.09;5003701;28;20080;-73
2023/02/18 09:38:32;;;;;;;192.93;178.45;;;;;;;4.96;88.99;101164.69;4996866;28;20120;-74
2023/02/18 09:41:01;;;;;;;184.98;169.63;;;;;;;4.96;88.91;101157.53;5002210;28;20119;-72
2023/02/18 09:43:33;;;;;;;194.65;179.77;;;;;;;4.99;89.15;101151.78;5003201;28;20041;-73
2023/02/18 09:46:00;;;;;;;183.93;168.40;;;;;;;5.03;89.22;101141.53;4985670;28;20383;-74
2023/02/18 09:48:32;;;;;;;181.82;166.55;;;;;;;5.02;89.42;101135.44;4982295;28;20080;-74
2023/02/18 09:50:58;;;;;;;182.50;166.82;;;;;;;5.25;88.91;101145.34;5005550;28;20041;-74
2023/02/18 09:53:25;;;;;;;202.35;187.13;;;;;;;5.11;89.42;101134.06;5001768;28;20773;-75
2023/02/18 09:55:53;;;;;;;182.80;167.25;;;;;;;5.22;89.41;101129.88;4981998;28;20507;-75
2023/02/18 09:58:22;;;;;;;185.52;169.73;;;;;;;5.30;88.54;101132.19;4987635;28;20042;-74
2023/02/18 10:01:15;;;;;;;181.75;166.95;;;;;;;5.16;89.03;101120.94;5003106;28;20056;-73
2023/02/18 10:03:42;;;;;;;;;;;;;;;5.11;89.79;101098.75;5009255;28;20496;-72
2023/02/18 10:06:14;;;;;;;192.10;176.07;;;;;;;5.11;89.54;101090.78;4988110;28;20008;-73
2023/02/18 10:08:46;;;;;;;191.73;175.65;;;;;;;5.23;89.18;101094.31;5018441;28;20030;-73
2023/02/18 10:11:28;;;;;;;198.35;183.80;;;;;;;5.28;88.85;101098.91;4993875;28;20036;-73
2023/02/18 10:13:55;;;;;;;180.87;166.57;;;;;;;5.22;89.29;101075.94;4964407;28;20526;-73
2023/02/18 10:16:23;;;;;;;199.05;184.55;;;;;;;5.26;89.68;101077.09;5004881;28;20042;-73
2023/02/18 10:18:53;;;;;;;193.20;179.18;;;;;;;5.34;89.48;101077.59;4984988;28;20044;-74
2023/02/18 10:21:23;;;;;;;187.98;172.75;;;;;;;5.42;89.13;101074.63;4978872;28;20139;-73
2023/02/18 10:23:57;;;;;;;188.70;175.05;;;;;;;5.33;89.05;101083.13;5000957;28;20176;-72
2023/02/18 10:26:23;;;;;;;195.50;181.27;;;;;;;5.33;89.24;101067.19;4998177;28;20413;-73
2023/02/18 10:28:50;;;;;;;185.48;170.23;;;;;;;5.40;89.23;101074.03;4969859;28;20510;-73
2023/02/18 10:31:39;;;;;;;184.90;169.98;;;;;;;5.47;89.56;101073.94;4987228;28;20487;-72
2023/02/18 10:34:18;;;;;;;188.95;175.35;;;;;;;5.51;89.46;101067.13;4981780;28;20045;-73
2023/02/18 10:36:48;;;;;;;194.80;180.73;;;;;;;5.49;89.03;101066.56;4992072;28;20048;-73
2023/02/18 10:39:40;;;;;;;191.68;177.73;;;;;;;5.53;89.45;101062.38;4994895;28;20076;-71
2023/02/18 10:42:23;;;;;;;130.73;118.43;;;;;;;5.59;89.34;101050.84;4984420;28;20124;-71
2023/02/18 10:45:07;;;;;;;190.35;175.25;;;;;;;5.64;89.51;101048.31;4996516;28;20392;-72
2023/02/18 10:48:04;;;;;;;184.95;170.20;;;;;;;5.69;89.24;101039.66;4984938;28;20076;-72
2023/02/18 10:50:36;;;;;;;186.10;171.35;;;;;;;5.66;89.41;101030.31;5003051;28;20038;-71
2023/02/18 10:53:29;;;;;;;187.52;172.80;;;;;;;5.83;89.40;101029.63;4996980;28;20044;-71
2023/02/18 10:55:57;;;;;;;182.00;167.57;;;;;;;5.87;89.49;101014.81;5009913;28;20410;-72
2023/02/18 10:58:41;;;;;;;185.55;171.00;;;;;;;6.04;89.41;101010.47;4986119;28;20057;-72
2023/02/18 11:01:15;;;;;;;184.48;169.88;;;;;;;6.08;89.22;101002.81;5001325;28;20034;-73
2023/02/18 11:03:50;;;;;;;179.85;165.88;;;;;;;6.01;88.87;100990.44;4995386;28;20041;-72
2023/02/18 11:06:30;;;;;;;182.85;168.23;;;;;;;6.10;89.20;100993.59;4999480;28;20072;-72
2023/02/18 11:08:56;;;;;;;181.32;167.23;;;;;;;6.16;89.06;100991.81;5006474;28;20037;-71
2023/02/18 11:11:27;;;;;;;191.60;177.68;;;;;;;6.13;89.64;100987.78;4968643;28;20128;-72
2023/02/18 11:13:56;;;;;;;182.98;168.52;;;;;;;6.14;90.03;100978.75;5005832;28;20041;-73